»·PEaware :: N148WT KSNA-KPSP

N148WT :: KSNA-KPSP

FLIGHT INFORMATION

Flight Status: Arrived
Operator: Privately registered:
United States
More flights under this callsign
Pilot: Vlad D. (11271)
Aircraft: Unknown
(B60T)
More flights by this aircraft type
Origin: KSNA John Wayne-Orange Co
United States
Destination: KPSP Palm Springs Intl
United States
More flights between these airports :: More routes between these airports
Route: VFR
File this flight plan on PilotEdge
Remarks: VFR hop to Palm Springs to test out GTN 750.
Altitude:
(Current/Filed)
11,500ft
Speed:
(Current/Filed)
180kts
Departed: 17-May-16 10:03 AM
Arrived: 17-May-16 10:41 AM
Distance/Time
Traveled:
68nm/0:37
Distance/Time
To Go:
Arrived

Flight Plot

Page will automatically refresh every two minutes.


Map Options




Map Legend


Flown Route
Filed Route
Departure Airport
Arrival Airport
Navaid (VOR, NDB)
Fix

Horizontal Profiles

Position Reports

Time Latitude Longitude Heading Altitude Ground
Speed
17-May-16 09:40 33.670225 -117.874694 23 59ft 0kts
17-May-16 09:40 33.670225 -117.874694 23 59ft 0kts
17-May-16 09:41 33.670225 -117.874694 23 59ft 0kts
17-May-16 09:42 33.670225 -117.874694 23 59ft 0kts
17-May-16 09:43 33.670225 -117.874694 23 59ft 0kts
17-May-16 09:44 33.670228 -117.874693 23 59ft 0kts
17-May-16 09:45 33.670230 -117.874692 23 59ft 0kts
17-May-16 09:46 33.670233 -117.874691 23 59ft 0kts
17-May-16 09:47 33.670235 -117.874689 23 59ft 0kts
17-May-16 09:48 33.670238 -117.874688 23 59ft 0kts
17-May-16 09:49 33.670240 -117.874687 23 59ft 0kts
17-May-16 09:50 33.670242 -117.874685 23 59ft 0kts
17-May-16 09:51 33.670245 -117.874684 23 59ft 0kts
17-May-16 09:52 33.670247 -117.874683 23 59ft 0kts
17-May-16 09:53 33.670374 -117.874275 103 59ft 4kts
17-May-16 09:54 33.671112 -117.873230 27 59ft 3kts
17-May-16 09:55 33.673390 -117.871823 26 59ft 11kts
17-May-16 09:56 33.676336 -117.870005 27 59ft 11kts
17-May-16 09:57 33.679190 -117.868239 26 59ft 11kts
17-May-16 09:58 33.681949 -117.866518 56 59ft 7kts
17-May-16 09:59 33.681897 -117.866012 117 59ft 0kts
17-May-16 10:00 33.681150 -117.865390 202 59ft 9kts
17-May-16 10:01 33.654778 -117.880687 187 1178ft 138kts
17-May-16 10:02 33.631294 -117.845218 94 2773ft 157kts
17-May-16 10:03 33.630614 -117.793147 88 4680ft 160kts
17-May-16 10:04 33.619888 -117.738704 92 6846ft 157kts
17-May-16 10:05 33.614146 -117.686008 92 8208ft 170kts
17-May-16 10:06 33.609160 -117.630988 92 8871ft 142kts
17-May-16 10:07 33.605034 -117.588626 92 10770ft 119kts
17-May-16 10:08 33.601106 -117.540928 92 11511ft 164kts
17-May-16 10:10 33.597008 -117.486740 92 11504ft 162kts
17-May-16 10:11 33.604609 -117.434376 72 11505ft 159kts
17-May-16 10:12 33.621218 -117.383898 53 11514ft 171kts
17-May-16 10:13 33.648013 -117.336099 59 11515ft 173kts
17-May-16 10:14 33.668638 -117.283477 62 11515ft 175kts
17-May-16 10:16 33.705112 -117.174353 48 11537ft 174kts
17-May-16 10:17 33.739420 -117.133087 42 11524ft 174kts
17-May-16 10:18 33.774301 -117.092526 42 11526ft 174kts
17-May-16 10:18 33.801626 -117.056356 47 11531ft 175kts
17-May-16 10:20 33.839505 -117.004912 47 11521ft 176kts
17-May-16 10:20 33.866717 -116.968323 47 11523ft 175kts
17-May-16 10:21 33.902087 -116.920893 47 10952ft 191kts
17-May-16 10:22 33.919440 -116.876089 72 8974ft 111kts
17-May-16 10:23 33.924036 -116.839667 77 6938ft 117kts
17-May-16 10:24 33.923183 -116.796541 87 4948ft 140kts
17-May-16 10:25 33.919425 -116.747063 90 3055ft 144kts
17-May-16 10:26 33.915361 -116.709526 93 3091ft 116kts
17-May-16 10:27 33.910342 -116.663908 91 3057ft 148kts
17-May-16 10:28 33.898260 -116.615228 119 3034ft 159kts
17-May-16 10:29 33.868830 -116.572568 136 2071ft 161kts
17-May-16 10:30 33.835966 -116.547613 155 1984ft 121kts
17-May-16 10:31 33.804332 -116.530950 159 2013ft 139kts
17-May-16 10:32 33.775445 -116.541634 326 1975ft 129kts
17-May-16 10:33 33.806971 -116.543092 348 2176ft 129kts
17-May-16 10:34 33.839825 -116.561989 320 1997ft 128kts
17-May-16 10:35 33.838985 -116.539457 139 2207ft 123kts
17-May-16 10:36 33.810298 -116.513750 147 1994ft 131kts
17-May-16 10:38 33.810468 -116.490685 323 871ft 93kts
17-May-16 10:39 33.827924 -116.506126 324 480ft 32kts
17-May-16 10:40 33.828902 -116.508202 249 480ft 0kts
17-May-16 10:41 33.828829 -116.508417 229 480ft 6kts
17-May-16 10:44 33.826653 -116.507029 143 480ft 5kts
17-May-16 10:45 33.825338 -116.508009 273 480ft 4kts
17-May-16 10:46 33.825977 -116.508996 354 480ft 5kts
17-May-16 10:47 33.826482 -116.509385 272 480ft 0kts
17-May-16 10:48 33.826482 -116.509421 269 480ft 1kts
17-May-16 10:49 33.826497 -116.509365 262 480ft 0kts
17-May-16 10:49 33.826497 -116.509369 262 480ft 0kts

Navigation Log

Ident Type
Flight plan parsing failed, navigation log unavailable